Time;durP1;ratioP1;P1;durP2;ratioP2;P2;SDS_P1;SDS_P2;PMS_P1;PMS_P2;Temp;Humidity;BMP_temperature;BMP_pressure;BME280_temperature;BME280_humidity;BME280_pressure;Samples;Min_cycle;Max_cycle;Signal;HPM_P1;HPM_P2
2023/04/14 00:02:22;;;;;;;6.83;5.00;;;11.60;99.90;;;;;;5049338;28;20666;-58
2023/04/14 00:04:52;;;;;;;7.53;5.33;;;11.50;99.90;;;;;;5043409;28;20457;-58
2023/04/14 00:07:17;;;;;;;8.13;6.03;;;11.50;99.90;;;;;;5050248;28;20204;-57
2023/04/14 00:09:43;;;;;;;5.57;4.90;;;11.50;1.00;;;;;;5043404;28;20975;-57
2023/04/14 00:12:09;;;;;;;6.33;5.43;;;11.50;1.00;;;;;;5048229;28;20515;-58
2023/04/14 00:14:34;;;;;;;7.03;4.97;;;11.50;1.00;;;;;;5046619;28;20212;-58
2023/04/14 00:17:00;;;;;;;6.07;5.47;;;11.60;99.90;;;;;;5047827;28;20207;-57
2023/04/14 00:19:26;;;;;;;8.73;6.00;;;11.60;99.90;;;;;;5043785;28;20223;-57
2023/04/14 00:21:51;;;;;;;7.53;5.53;;;11.50;1.00;;;;;;5046987;28;20942;-57
2023/04/14 00:24:17;;;;;;;7.03;5.83;;;11.40;1.00;;;;;;5044232;28;20264;-56
2023/04/14 00:26:43;;;;;;;6.53;5.67;;;11.40;1.00;;;;;;5048842;28;20222;-57
2023/04/14 00:29:08;;;;;;;9.80;5.50;;;11.40;1.00;;;;;;5041753;28;20524;-58
2023/04/14 00:31:34;;;;;;;7.40;5.63;;;11.50;1.00;;;;;;5046824;28;20184;-58
2023/04/14 00:34:00;;;;;;;8.80;5.90;;;11.50;1.00;;;;;;5044662;28;20534;-58
2023/04/14 00:36:25;;;;;;;6.70;5.57;;;11.50;1.00;;;;;;5048506;28;20191;-59
2023/04/14 00:38:51;;;;;;;8.23;5.60;;;11.50;1.00;;;;;;5044374;28;20247;-58
2023/04/14 00:41:17;;;;;;;6.73;4.60;;;11.50;1.00;;;;;;5048808;28;20201;-57
2023/04/14 00:43:42;;;;;;;7.07;5.90;;;11.30;1.00;;;;;;5041239;28;20196;-58
2023/04/14 00:46:08;;;;;;;8.70;5.50;;;11.30;1.00;;;;;;5044231;28;20307;-58
2023/04/14 00:48:34;;;;;;;7.70;5.20;;;11.30;1.00;;;;;;5045301;28;20238;-58
2023/04/14 00:51:00;;;;;;;7.67;5.03;;;11.20;1.00;;;;;;5048288;28;20451;-59
2023/04/14 00:53:26;;;;;;;7.20;5.10;;;11.20;1.00;;;;;;5044832;28;21020;-58
2023/04/14 00:55:52;;;;;;;5.87;4.80;;;11.30;1.00;;;;;;5040965;28;20479;-58
2023/04/14 00:58:18;;;;;;;5.70;4.90;;;11.30;1.00;;;;;;5045374;28;20508;-58
2023/04/14 01:00:45;;;;;;;7.07;5.10;;;11.30;1.00;;;;;;5045760;28;20192;-58
2023/04/14 01:03:10;;;;;;;6.93;5.40;;;11.40;1.00;;;;;;5045083;28;20801;-57
2023/04/14 01:05:36;;;;;;;6.97;5.33;;;11.40;1.00;;;;;;5043289;28;20453;-58
2023/04/14 01:08:02;;;;;;;8.63;5.17;;;11.40;1.00;;;;;;5044575;28;20680;-58
2023/04/14 01:10:33;;;;;;;7.13;5.63;;;11.40;1.00;;;;;;5042657;28;20215;-58
2023/04/14 01:13:32;;;;;;;10.13;5.60;;;11.50;1.00;;;;;;5041208;28;20451;-58
2023/04/14 01:16:02;;;;;;;7.00;5.60;;;11.50;1.00;;;;;;5046526;28;20486;-59
2023/04/14 01:18:46;;;;;;;9.23;5.70;;;11.40;1.00;;;;;;5047285;28;20787;-58
2023/04/14 01:21:19;;;;;;;6.93;5.33;;;11.30;1.00;;;;;;5047164;28;20478;-58
2023/04/14 01:24:04;;;;;;;6.87;5.37;;;11.40;1.00;;;;;;5044879;28;20520;-57
2023/04/14 01:26:32;;;;;;;7.10;5.47;;;11.50;1.00;;;;;;5047134;28;20473;-59
2023/04/14 01:29:15;;;;;;;6.37;5.37;;;11.50;1.00;;;;;;5044967;28;20470;-58
2023/04/14 01:31:47;;;;;;;6.90;5.10;;;11.50;1.00;;;;;;5048958;28;20441;-58
2023/04/14 01:34:23;;;;;;;6.50;4.73;;;11.60;1.00;;;;;;5050917;28;20450;-60
2023/04/14 01:37:11;;;;;;;7.27;4.80;;;11.60;1.00;;;;;;5050590;28;20446;-59
2023/04/14 01:39:53;;;;;;;10.00;5.10;;;11.50;1.00;;;;;;5053031;28;21130;-58
2023/04/14 01:42:23;;;;;;;8.90;4.80;;;11.50;1.00;;;;;;5049595;28;20511;-57
2023/04/14 01:44:55;;;;;;;4.00;3.57;;;11.60;1.00;;;;;;5051609;28;20473;-58
2023/04/14 01:47:23;;;;;;;6.97;4.63;;;11.70;1.00;;;;;;5052122;28;20954;-57
2023/04/14 01:49:52;;;;;;;8.57;4.70;;;11.70;1.00;;;;;;5048542;28;20461;-58
2023/04/14 01:52:19;;;;;;;5.13;4.10;;;11.50;1.00;;;;;;5054690;28;20961;-57
2023/04/14 01:54:48;;;;;;;4.87;4.00;;;11.50;1.00;;;;;;5049141;28;21003;-57
2023/04/14 01:57:18;;;;;;;6.90;4.67;;;11.60;1.00;;;;;;5051916;28;20500;-57
2023/04/14 01:59:45;;;;;;;6.50;4.27;;;11.50;1.00;;;;;;5048153;28;20453;-58
2023/04/14 02:02:12;;;;;;;4.93;3.90;;;11.50;1.00;;;;;;5043479;28;20485;-58
2023/04/14 02:04:40;;;;;;;6.17;4.63;;;11.50;1.00;;;;;;5046916;28;20812;-57
2023/04/14 02:07:10;;;;;;;4.40;4.00;;;11.50;1.00;;;;;;5050707;28;20466;-58
2023/04/14 02:09:38;;;;;;;4.70;4.30;;;11.50;1.00;;;;;;5050173;28;20991;-58
2023/04/14 02:12:05;;;;;;;4.87;4.30;;;11.50;1.00;;;;;;5046331;28;20449;-57
2023/04/14 02:14:33;;;;;;;5.07;4.50;;;11.50;1.00;;;;;;5048861;28;20438;-58
2023/04/14 02:17:01;;;;;;;7.40;5.30;;;11.50;1.00;;;;;;5047215;28;20536;-57
2023/04/14 02:19:28;;;;;;;6.30;4.50;;;11.50;1.00;;;;;;5061198;28;20449;-58
2023/04/14 02:21:55;;;;;;;6.23;5.20;;;11.50;1.00;;;;;;5045500;28;20485;-58
2023/04/14 02:24:22;;;;;;;7.37;5.47;;;11.40;1.00;;;;;;5050719;28;20435;-58
2023/04/14 02:27:06;;;;;;;5.37;4.17;;;11.40;1.00;;;;;;5053141;28;20993;-57
2023/04/14 02:29:34;;;;;;;6.30;4.50;;;11.40;1.00;;;;;;5055128;28;20875;-57
2023/04/14 02:32:04;;;;;;;6.07;4.53;;;11.30;1.00;;;;;;5047419;28;20508;-58
2023/04/14 02:34:34;;;;;;;5.00;4.50;;;11.30;1.00;;;;;;5050002;28;20467;-57
2023/04/14 02:37:08;;;;;;;6.73;4.60;;;11.20;1.00;;;;;;5048301;28;20536;-57
2023/04/14 02:39:44;;;;;;;5.57;5.03;;;11.20;1.00;;;;;;5050203;28;20454;-57
2023/04/14 02:42:17;;;;;;;7.63;5.17;;;11.20;1.00;;;;;;5048952;28;20973;-57
2023/04/14 02:44:47;;;;;;;5.60;4.97;;;11.30;1.00;;;;;;5047977;28;20769;-58
2023/04/14 02:47:31;;;;;;;5.07;4.57;;;11.30;1.00;;;;;;5049766;28;20855;-57
2023/04/14 02:50:00;;;;;;;6.60;4.40;;;11.30;1.00;;;;;;5045850;28;20446;-58
2023/04/14 02:52:30;;;;;;;5.40;3.80;;;11.30;1.00;;;;;;5047588;28;20442;-57
2023/04/14 02:54:57;;;;;;;6.27;4.20;;;11.40;1.00;;;;;;5046907;28;20515;-57
2023/04/14 02:57:25;;;;;;;7.20;6.50;;;11.30;1.00;;;;;;5043724;28;20514;-57
2023/04/14 02:59:51;;;;;;;7.63;4.60;;;11.30;1.00;;;;;;5049317;28;20473;-58
2023/04/14 03:02:17;;;;;;;7.40;5.07;;;11.30;1.00;;;;;;5047903;28;20782;-58
2023/04/14 03:04:43;;;;;;;8.27;4.80;;;11.20;1.00;;;;;;5045597;28;20823;-58
2023/04/14 03:07:11;;;;;;;8.07;4.17;;;11.30;1.00;;;;;;5061686;28;20471;-58
2023/04/14 03:09:39;;;;;;;6.30;4.83;;;11.20;1.00;;;;;;5048399;28;21242;-58
2023/04/14 03:12:06;;;;;;;6.33;4.97;;;11.30;1.00;;;;;;5049475;28;20822;-58
2023/04/14 03:14:34;;;;;;;5.00;4.50;;;11.30;1.00;;;;;;5046338;28;20923;-57
2023/04/14 03:17:00;;;;;;;5.73;4.93;;;11.40;1.00;;;;;;5049198;28;20454;-57
2023/04/14 03:19:28;;;;;;;5.77;4.80;;;11.30;1.00;;;;;;5048568;28;20469;-58
2023/04/14 03:21:55;;;;;;;6.53;4.53;;;11.40;1.00;;;;;;5046581;28;20565;-57
2023/04/14 03:24:26;;;;;;;5.83;4.77;;;11.30;1.00;;;;;;5043650;28;20490;-58
2023/04/14 03:27:00;;;;;;;8.10;5.20;;;11.10;1.00;;;;;;5051094;28;20481;-58
2023/04/14 03:29:28;;;;;;;8.30;5.20;;;11.00;1.00;;;;;;5061925;28;20520;-57
2023/04/14 03:31:56;;;;;;;7.60;5.20;;;10.90;1.00;;;;;;5049140;28;20486;-57
2023/04/14 03:34:26;;;;;;;6.03;5.43;;;11.00;1.00;;;;;;5046833;28;21427;-58
2023/04/14 03:36:54;;;;;;;8.80;5.73;;;11.20;1.00;;;;;;5048764;28;20781;-57
2023/04/14 03:39:23;;;;;;;7.07;6.37;;;11.10;1.00;;;;;;5046386;28;20509;-60
2023/04/14 03:41:50;;;;;;;8.23;5.00;;;11.00;1.00;;;;;;5046863;28;20450;-58
2023/04/14 03:44:18;;;;;;;10.20;5.40;;;10.90;1.00;;;;;;5048366;28;20464;-58
2023/04/14 03:46:44;;;;;;;6.27;5.57;;;10.80;1.00;;;;;;5048162;28;20475;-59
2023/04/14 03:49:15;;;;;;;5.90;5.00;;;10.80;1.00;;;;;;5046885;28;21014;-57
2023/04/14 03:51:44;;;;;;;5.93;5.30;;;10.90;1.00;;;;;;5046859;28;20556;-58
2023/04/14 03:54:14;;;;;;;8.00;5.40;;;10.80;1.00;;;;;;5047365;28;21002;-58
2023/04/14 03:56:44;;;;;;;5.20;4.63;;;10.80;1.00;;;;;;5050305;28;20459;-56
2023/04/14 03:59:14;;;;;;;9.37;5.93;;;10.70;1.00;;;;;;5044468;28;20538;-57
2023/04/14 04:01:40;;;;;;;6.00;5.20;;;10.50;1.00;;;;;;5049783;28;20446;-58
2023/04/14 04:04:06;;;;;;;6.20;5.23;;;10.60;1.00;;;;;;5039364;28;20534;-57
2023/04/14 04:06:33;;;;;;;6.70;5.47;;;10.60;1.00;;;;;;5050205;28;20520;-57
2023/04/14 04:09:01;;;;;;;6.07;5.57;;;10.50;1.00;;;;;;5049983;28;20443;-58
2023/04/14 04:11:28;;;;;;;11.20;6.47;;;10.50;1.00;;;;;;5049984;28;20447;-57
2023/04/14 04:13:55;;;;;;;8.90;6.80;;;10.40;1.00;;;;;;5040723;28;21303;-57
2023/04/14 04:16:22;;;;;;;6.93;6.30;;;10.30;1.00;;;;;;5045824;28;20474;-57
2023/04/14 04:18:49;;;;;;;9.80;7.10;;;10.30;1.00;;;;;;5046094;28;20505;-58
2023/04/14 04:21:17;;;;;;;7.57;6.83;;;10.30;1.00;;;;;;5058451;28;20442;-58
2023/04/14 04:23:47;;;;;;;8.13;6.07;;;10.30;1.00;;;;;;5045490;28;20454;-57
2023/04/14 04:26:13;;;;;;;7.63;6.73;;;10.20;1.00;;;;;;5050438;28;20489;-57
2023/04/14 04:28:40;;;;;;;9.73;6.20;;;10.30;1.00;;;;;;5046809;28;20450;-57
2023/04/14 04:31:08;;;;;;;8.80;6.33;;;10.30;1.00;;;;;;5045035;28;20447;-57
2023/04/14 04:33:34;;;;;;;7.20;6.40;;;10.30;1.00;;;;;;5047349;28;20447;-58
2023/04/14 04:36:00;;;;;;;6.60;5.93;;;10.30;1.00;;;;;;5049708;28;20443;-58
2023/04/14 04:38:26;;;;;;;8.80;5.83;;;10.20;1.00;;;;;;5047334;28;20553;-57
2023/04/14 04:40:52;;;;;;;8.33;6.33;;;10.20;1.00;;;;;;5048685;28;20534;-58
2023/04/14 04:43:20;;;;;;;9.30;7.00;;;10.10;1.00;;;;;;5046496;28;20192;-57
2023/04/14 04:45:58;;;;;;;11.07;7.30;;;10.20;1.00;;;;;;5047472;28;20196;-58
2023/04/14 04:48:24;;;;;;;8.30;7.20;;;10.40;1.00;;;;;;5047628;28;20851;-57
2023/04/14 04:50:49;;;;;;;10.53;8.40;;;10.40;1.00;;;;;;5048366;28;20447;-58
2023/04/14 04:53:15;;;;;;;8.57;6.80;;;10.50;1.00;;;;;;5044531;28;20458;-57
2023/04/14 04:55:41;;;;;;;14.43;7.50;;;10.50;1.00;;;;;;5047195;28;20258;-57
2023/04/14 04:58:08;;;;;;;9.60;7.03;;;10.50;1.00;;;;;;5042822;28;20189;-56
2023/04/14 05:00:33;;;;;;;6.50;5.57;;;10.50;1.00;;;;;;5039401;28;20451;-58
2023/04/14 05:02:59;;;;;;;7.60;6.87;;;10.50;1.00;;;;;;5042893;28;20447;-56
2023/04/14 05:05:24;;;;;;;8.07;7.27;;;10.50;1.00;;;;;;5044653;28;20189;-57
2023/04/14 05:07:50;;;;;;;9.00;6.40;;;10.60;1.00;;;;;;5053535;28;20214;-57
2023/04/14 05:10:16;;;;;;;9.87;7.10;;;10.40;1.00;;;;;;5048656;28;20188;-58
2023/04/14 05:12:41;;;;;;;9.27;6.37;;;10.50;1.00;;;;;;5045054;28;20184;-58
2023/04/14 05:15:08;;;;;;;9.83;8.23;;;10.40;1.00;;;;;;5045981;28;20188;-57
2023/04/14 05:17:34;;;;;;;9.10;7.40;;;10.50;1.00;;;;;;5042179;28;20596;-57
2023/04/14 05:20:01;;;;;;;8.60;7.40;;;10.50;1.00;;;;;;5046800;28;21079;-57
2023/04/14 05:22:27;;;;;;;11.63;7.23;;;10.50;1.00;;;;;;5040620;28;20455;-57
2023/04/14 05:24:52;;;;;;;10.30;7.97;;;10.60;1.00;;;;;;5047718;28;20871;-56
2023/04/14 05:27:18;;;;;;;8.43;7.60;;;10.70;1.00;;;;;;5040701;28;20208;-57
2023/04/14 05:29:43;;;;;;;10.47;7.53;;;10.80;1.00;;;;;;5047039;28;20660;-57
2023/04/14 05:32:11;;;;;;;9.90;7.20;;;10.70;1.00;;;;;;5041945;28;20176;-58
2023/04/14 05:34:37;;;;;;;10.27;7.43;;;10.70;1.00;;;;;;5047663;28;21022;-56
2023/04/14 05:37:02;;;;;;;9.30;7.60;;;10.70;1.00;;;;;;5044239;28;20451;-55
2023/04/14 05:39:28;;;;;;;8.87;7.43;;;10.50;1.00;;;;;;5048009;28;20189;-56
2023/04/14 05:41:53;;;;;;;8.73;7.83;;;10.50;1.00;;;;;;5044686;28;20200;-57
2023/04/14 05:44:19;;;;;;;12.50;9.20;;;10.50;1.00;;;;;;5047959;28;20185;-56
2023/04/14 05:46:45;;;;;;;10.93;7.70;;;10.60;1.00;;;;;;5044678;28;20200;-57
2023/04/14 05:49:11;;;;;;;10.73;7.90;;;10.70;1.00;;;;;;5044760;28;20535;-55
2023/04/14 05:51:36;;;;;;;10.30;8.10;;;10.60;1.00;;;;;;5044171;28;20961;-56
2023/04/14 05:54:02;;;;;;;10.23;7.40;;;10.60;1.00;;;;;;5040809;28;21710;-57
2023/04/14 05:56:28;;;;;;;8.83;7.23;;;10.60;1.00;;;;;;5042562;28;20191;-57
2023/04/14 05:58:54;;;;;;;8.53;7.50;;;10.60;1.00;;;;;;5040811;28;20829;-56
2023/04/14 06:01:20;;;;;;;11.00;8.60;;;10.60;1.00;;;;;;5046110;28;20200;-57
2023/04/14 06:03:45;;;;;;;8.90;7.77;;;10.50;1.00;;;;;;5046517;28;20438;-57
2023/04/14 06:06:11;;;;;;;9.40;8.20;;;10.30;1.00;;;;;;5044375;28;20176;-57
2023/04/14 06:08:37;;;;;;;10.23;7.53;;;10.40;1.00;;;;;;5047166;28;20185;-55
2023/04/14 06:11:02;;;;;;;9.17;8.27;;;10.50;1.00;;;;;;5044878;28;20272;-56
2023/04/14 06:13:28;;;;;;;8.77;7.87;;;10.50;1.00;;;;;;5051145;28;20219;-57
2023/04/14 06:15:58;;;;;;;9.10;7.73;;;10.60;1.00;;;;;;5044919;28;20197;-56
2023/04/14 06:18:23;;;;;;;9.53;7.37;;;10.70;1.00;;;;;;5054646;28;20249;-57
2023/04/14 06:20:49;;;;;;;8.70;7.80;;;10.80;1.00;;;;;;5051852;28;20447;-63
2023/04/14 06:23:15;;;;;;;9.60;8.37;;;10.80;1.00;;;;;;5049569;28;20275;-54
2023/04/14 06:25:40;;;;;;;9.93;8.37;;;10.70;1.00;;;;;;5047045;28;20280;-55
2023/04/14 06:28:06;;;;;;;8.20;7.37;;;10.70;1.00;;;;;;5047288;28;20208;-55
2023/04/14 06:30:32;;;;;;;9.30;7.00;;;10.70;1.00;;;;;;5050744;28;20670;-55
2023/04/14 06:33:00;;;;;;;10.37;7.83;;;10.70;1.00;;;;;;5041299;28;20839;-54
2023/04/14 06:35:26;;;;;;;9.23;7.43;;;10.70;1.00;;;;;;5045370;28;20228;-56
2023/04/14 06:37:51;;;;;;;8.53;7.70;;;10.70;1.00;;;;;;5050875;28;20845;-55
2023/04/14 06:40:17;;;;;;;9.53;8.37;;;10.60;1.00;;;;;;5047618;28;20654;-56
2023/04/14 06:42:43;;;;;;;13.67;7.70;;;10.70;1.00;;;;;;5050073;28;20196;-55
2023/04/14 06:45:09;;;;;;;9.67;8.50;;;10.70;1.00;;;;;;5047858;28;20192;-55
2023/04/14 06:47:34;;;;;;;9.83;8.43;;;10.80;1.00;;;;;;5040560;28;20308;-55
2023/04/14 06:50:02;;;;;;;9.43;7.93;;;10.90;1.00;;;;;;5046155;28;20470;-55
2023/04/14 06:52:27;;;;;;;10.97;8.10;;;11.00;1.00;;;;;;5045780;28;20196;-56
2023/04/14 06:54:53;;;;;;;9.50;7.90;;;11.10;1.00;;;;;;5043709;28;20485;-53
2023/04/14 06:57:19;;;;;;;9.60;8.57;;;11.00;1.00;;;;;;5043708;28;20814;-55
2023/04/14 06:59:45;;;;;;;12.43;8.33;;;11.10;1.00;;;;;;5045899;28;20199;-56
2023/04/14 07:02:11;;;;;;;9.63;8.30;;;11.10;1.00;;;;;;5048689;28;20555;-56
2023/04/14 07:04:36;;;;;;;9.77;8.20;;;11.10;1.00;;;;;;5046531;28;20448;-55
2023/04/14 07:07:02;;;;;;;11.17;8.50;;;11.10;1.00;;;;;;5048773;28;20342;-54
2023/04/14 07:09:28;;;;;;;10.50;9.40;;;11.10;1.00;;;;;;5046115;28;20198;-55
2023/04/14 07:11:56;;;;;;;11.77;9.10;;;11.00;1.00;;;;;;5049997;28;20187;-56
2023/04/14 07:14:22;;;;;;;9.90;8.20;;;11.00;1.00;;;;;;5046925;28;20189;-55
2023/04/14 07:16:48;;;;;;;10.53;8.57;;;11.10;1.00;;;;;;5056444;28;20831;-56
2023/04/14 07:19:14;;;;;;;9.63;8.03;;;11.20;1.00;;;;;;5047005;28;20478;-55
2023/04/14 07:21:40;;;;;;;9.63;8.07;;;11.40;1.00;;;;;;5049296;28;20458;-55
2023/04/14 07:24:05;;;;;;;10.90;8.33;;;11.40;1.00;;;;;;5046891;28;20284;-54
2023/04/14 07:26:31;;;;;;;11.00;9.90;;;11.30;1.00;;;;;;5046293;28;20346;-57
2023/04/14 07:28:57;;;;;;;9.57;8.57;;;11.20;1.00;;;;;;5047911;28;20188;-54
2023/04/14 07:31:22;;;;;;;9.83;8.87;;;11.10;1.00;;;;;;5049109;28;20181;-56
2023/04/14 07:33:48;;;;;;;10.93;9.43;;;11.20;1.00;;;;;;5048176;28;20177;-56
2023/04/14 07:36:14;;;;;;;10.30;9.30;;;11.20;1.00;;;;;;5052488;28;20204;-55
2023/04/14 07:38:40;;;;;;;10.63;8.87;;;11.20;1.00;;;;;;5050077;28;20347;-56
2023/04/14 07:41:06;;;;;;;11.37;9.23;;;11.00;1.00;;;;;;5043513;28;20188;-55
2023/04/14 07:43:34;;;;;;;10.70;9.60;;;10.90;1.00;;;;;;5044343;28;20455;-56
2023/04/14 07:46:04;;;;;;;11.10;9.90;;;10.70;1.00;;;;;;5049069;28;20484;-55
2023/04/14 07:48:31;;;;;;;13.90;9.73;;;10.80;1.00;;;;;;5046747;28;20477;-56
2023/04/14 07:50:57;;;;;;;9.40;7.80;;;10.90;1.00;;;;;;5048305;28;20450;-55
2023/04/14 07:53:22;;;;;;;10.70;7.97;;;11.00;1.00;;;;;;5058927;28;20450;-55
2023/04/14 07:55:48;;;;;;;9.53;7.90;;;10.90;1.00;;;;;;5049615;28;20471;-55
2023/04/14 07:58:15;;;;;;;8.53;7.70;;;11.00;1.00;;;;;;5049513;28;20189;-57
2023/04/14 08:00:40;;;;;;;8.83;7.53;;;11.00;1.00;;;;;;5046475;28;20686;-57
2023/04/14 08:03:06;;;;;;;10.10;8.60;;;11.00;1.00;;;;;;5043701;28;20462;-55
2023/04/14 08:05:32;;;;;;;9.07;7.73;;;11.00;1.00;;;;;;5040929;28;20199;-58
2023/04/14 08:07:58;;;;;;;11.03;9.50;;;10.90;1.00;;;;;;5045609;28;20216;-57
2023/04/14 08:10:24;;;;;;;10.40;9.30;;;10.80;1.00;;;;;;5045094;28;20967;-56
2023/04/14 08:12:50;;;;;;;9.90;8.90;;;10.80;1.00;;;;;;5046153;28;20194;-56
2023/04/14 08:15:15;;;;;;;9.70;8.70;;;10.90;1.00;;;;;;5046560;28;20443;-56
2023/04/14 08:17:41;;;;;;;9.03;7.97;;;10.80;1.00;;;;;;5049435;28;20196;-56
2023/04/14 08:20:07;;;;;;;9.90;7.27;;;10.90;1.00;;;;;;5045313;28;20277;-54
2023/04/14 08:22:33;;;;;;;9.13;6.60;;;10.90;1.00;;;;;;5046801;28;20550;-54
2023/04/14 08:24:59;;;;;;;9.00;6.50;;;10.90;1.00;;;;;;5046190;28;20532;-56
2023/04/14 08:27:24;;;;;;;5.73;4.37;;;10.70;1.00;;;;;;5048580;28;21027;-56
2023/04/14 08:29:50;;;;;;;5.13;4.07;;;10.80;1.00;;;;;;5045947;28;20189;-57
2023/04/14 08:32:16;;;;;;;10.87;6.73;;;10.80;1.00;;;;;;5045623;28;20191;-55
2023/04/14 08:34:42;;;;;;;6.50;4.13;;;10.70;1.00;;;;;;5045298;28;20196;-55
2023/04/14 08:37:07;;;;;;;5.03;4.47;;;10.70;1.00;;;;;;5049006;28;20520;-55
2023/04/14 08:39:33;;;;;;;6.13;4.87;;;10.80;1.00;;;;;;5046795;28;20310;-54
2023/04/14 08:41:58;;;;;;;7.47;4.90;;;10.80;1.00;;;;;;5046469;28;20242;-55
2023/04/14 08:44:24;;;;;;;6.97;5.37;;;10.80;1.00;;;;;;5046441;28;20198;-56
2023/04/14 08:46:53;;;;;;;5.30;4.80;;;10.70;1.00;;;;;;5045071;28;20224;-57
2023/04/14 08:49:38;;;;;;;8.23;4.93;;;10.80;1.00;;;;;;5047247;28;20680;-56
2023/04/14 08:52:06;;;;;;;5.73;5.03;;;10.80;1.00;;;;;;5047262;28;21182;-55
2023/04/14 08:54:32;;;;;;;6.37;5.73;;;10.70;1.00;;;;;;5043952;28;20565;-57
2023/04/14 08:56:59;;;;;;;6.87;6.17;;;10.80;1.00;;;;;;5045369;28;20453;-55
2023/04/14 08:59:27;;;;;;;9.73;6.70;;;10.70;1.00;;;;;;5044367;28;20459;-57
2023/04/14 09:01:54;;;;;;;6.47;5.87;;;10.50;1.00;;;;;;5042205;28;20450;-55
2023/04/14 09:04:22;;;;;;;6.60;6.00;;;10.40;1.00;;;;;;5041450;28;20473;-57
2023/04/14 09:06:47;;;;;;;6.30;5.70;;;10.50;1.00;;;;;;5047403;28;20473;-55
2023/04/14 09:09:14;;;;;;;5.73;5.03;;;10.50;1.00;;;;;;5048890;28;20817;-56
2023/04/14 09:11:40;;;;;;;4.90;4.47;;;10.40;1.00;;;;;;5046531;28;20534;-54
2023/04/14 09:14:08;;;;;;;5.73;5.23;;;10.40;1.00;;;;;;5041298;28;20439;-55
2023/04/14 09:16:34;;;;;;;6.87;4.97;;;10.50;1.00;;;;;;5042523;28;20476;-57
2023/04/14 09:19:00;;;;;;;5.80;5.20;;;10.50;1.00;;;;;;5046975;28;20990;-56
2023/04/14 09:21:27;;;;;;;5.50;5.00;;;10.50;1.00;;;;;;5046047;28;20448;-56
2023/04/14 09:23:53;;;;;;;6.47;5.87;;;10.50;1.00;;;;;;5045180;28;20666;-56
2023/04/14 09:26:18;;;;;;;5.17;4.07;;;10.60;1.00;;;;;;5043130;28;20496;-56
2023/04/14 09:28:44;;;;;;;6.33;5.00;;;10.60;1.00;;;;;;5049267;28;20434;-54
2023/04/14 09:31:10;;;;;;;6.60;4.80;;;10.60;1.00;;;;;;5042365;28;20180;-55
2023/04/14 09:33:43;;;;;;;4.60;4.20;;;10.60;1.00;;;;;;5048993;28;20434;-56
2023/04/14 09:36:25;;;;;;;4.73;4.23;;;10.70;1.00;;;;;;5045803;28;20264;-55
2023/04/14 09:38:51;;;;;;;5.53;4.43;;;10.60;1.00;;;;;;5048949;28;20434;-55
2023/04/14 09:41:18;;;;;;;4.80;4.13;;;10.70;1.00;;;;;;5051408;28;20426;-55
2023/04/14 09:43:44;;;;;;;4.23;3.83;;;10.80;1.00;;;;;;5053374;28;20350;-56
2023/04/14 09:46:10;;;;;;;5.43;4.93;;;10.60;1.00;;;;;;5048431;28;20442;-54
2023/04/14 09:48:55;;;;;;;5.20;4.43;;;10.40;1.00;;;;;;5047716;28;20466;-55
2023/04/14 09:51:22;;;;;;;5.30;4.63;;;10.30;1.00;;;;;;5044696;28;20441;-54
2023/04/14 09:53:48;;;;;;;5.27;4.77;;;10.20;1.00;;;;;;5058972;28;20467;-56
2023/04/14 09:56:14;;;;;;;5.50;5.00;;;10.00;1.00;;;;;;5072469;28;20975;-54
2023/04/14 09:58:42;;;;;;;4.90;4.40;;;10.10;1.00;;;;;;5053841;28;20442;-54
2023/04/14 10:01:13;;;;;;;6.80;4.37;;;10.10;1.00;;;;;;5061105;28;20451;-57
2023/04/14 10:03:44;;;;;;;5.23;3.77;;;10.20;1.00;;;;;;5048459;28;21266;-55
2023/04/14 10:06:16;;;;;;;3.97;3.67;;;10.20;1.00;;;;;;5049989;28;20413;-55
2023/04/14 10:08:45;;;;;;;6.90;4.07;;;10.10;1.00;;;;;;5051349;28;20450;-54
2023/04/14 10:11:20;;;;;;;7.50;4.43;;;10.20;1.00;;;;;;5048868;28;20451;-56
2023/04/14 10:13:53;;;;;;;6.50;4.10;;;10.10;1.00;;;;;;5051186;28;20523;-54
2023/04/14 10:16:19;;;;;;;5.50;4.50;;;10.00;1.00;;;;;;5062934;28;20788;-56
2023/04/14 10:18:45;;;;;;;4.20;3.80;;;10.10;1.00;;;;;;5050782;28;20443;-56
2023/04/14 10:21:13;;;;;;;4.67;3.80;;;10.30;1.00;;;;;;5050678;28;20999;-58
2023/04/14 10:23:40;;;;;;;4.90;4.03;;;10.40;1.00;;;;;;5049551;28;20200;-55
2023/04/14 10:26:07;;;;;;;3.73;3.27;;;10.50;1.00;;;;;;5049410;28;20524;-54
2023/04/14 10:28:36;;;;;;;5.50;3.10;;;10.50;1.00;;;;;;5053704;28;20484;-56
2023/04/14 10:31:04;;;;;;;4.57;4.17;;;10.50;1.00;;;;;;5053402;28;20447;-56
2023/04/14 10:33:30;;;;;;;4.93;4.13;;;10.40;1.00;;;;;;5049701;28;20479;-55
2023/04/14 10:36:00;;;;;;;6.40;5.63;;;10.30;1.00;;;;;;5049345;28;20532;-56
2023/04/14 10:38:39;;;;;;;5.80;4.07;;;10.50;1.00;;;;;;5050224;28;20193;-57
2023/04/14 10:41:08;;;;;;;5.40;3.60;;;10.60;1.00;;;;;;5050160;28;20932;-57
2023/04/14 10:43:35;;;;;;;4.30;3.90;;;10.60;1.00;;;;;;5051865;28;20439;-57
2023/04/14 10:46:02;;;;;;;4.00;3.00;;;10.60;1.00;;;;;;5050755;28;20475;-57
2023/04/14 10:48:37;;;;;;;4.47;4.07;;;10.50;1.00;;;;;;5046861;28;20562;-56
2023/04/14 10:51:07;;;;;;;4.10;3.70;;;10.50;1.00;;;;;;5048390;28;20450;-57
2023/04/14 10:53:37;;;;;;;4.43;4.03;;;10.40;1.00;;;;;;5050038;28;20521;-56
2023/04/14 10:56:04;;;;;;;3.50;3.20;;;10.50;1.00;;;;;;5051713;28;20790;-58
2023/04/14 10:58:33;;;;;;;3.37;3.07;;;10.50;1.00;;;;;;5048710;28;20520;-56
2023/04/14 11:00:59;;;;;;;3.83;3.20;;;10.50;1.00;;;;;;5048841;28;20443;-57
2023/04/14 11:03:30;;;;;;;3.60;3.30;;;10.40;1.00;;;;;;5046705;28;20453;-58
2023/04/14 11:05:57;;;;;;;3.50;3.20;;;10.50;1.00;;;;;;5051475;28;20188;-55
2023/04/14 11:08:35;;;;;;;3.03;2.77;;;10.40;1.00;;;;;;5049897;28;20477;-56
2023/04/14 11:11:03;;;;;;;3.30;3.10;;;10.50;1.00;;;;;;5047629;28;20517;-56
2023/04/14 11:13:30;;;;;;;3.30;3.00;;;10.50;1.00;;;;;;5051576;28;20839;-56
2023/04/14 11:16:01;;;;;;;3.47;3.17;;;10.40;1.00;;;;;;5049937;28;20477;-57
2023/04/14 11:18:32;;;;;;;3.90;3.57;;;10.40;1.00;;;;;;5047217;28;20522;-55
2023/04/14 11:21:07;;;;;;;3.43;3.13;;;10.40;1.00;;;;;;5049880;28;21116;-55
2023/04/14 11:23:34;;;;;;;3.83;3.40;;;10.50;1.00;;;;;;5054630;28;20461;-58
2023/04/14 11:26:00;;;;;;;3.30;2.90;;;10.70;1.00;;;;;;5050511;28;20442;-56
2023/04/14 11:28:31;;;;;;;3.33;3.03;;;10.80;1.00;;;;;;5051213;28;20486;-56
2023/04/14 11:30:58;;;;;;;4.30;3.37;;;10.90;1.00;;;;;;5052094;28;20935;-56
2023/04/14 11:33:38;;;;;;;3.50;3.20;;;11.00;1.00;;;;;;5048826;28;20466;-58
2023/04/14 11:36:05;;;;;;;4.03;3.07;;;10.90;1.00;;;;;;5049618;28;20798;-58
2023/04/14 11:38:34;;;;;;;3.60;3.30;;;10.80;1.00;;;;;;5047590;28;20453;-57
2023/04/14 11:41:00;;;;;;;3.90;3.60;;;10.80;1.00;;;;;;5046846;28;20455;-58
2023/04/14 11:43:31;;;;;;;4.60;3.53;;;10.80;1.00;;;;;;5049596;28;20990;-56
2023/04/14 11:45:59;;;;;;;4.10;3.70;;;10.60;1.00;;;;;;5047995;28;20467;-57
2023/04/14 11:48:27;;;;;;;3.73;3.40;;;10.30;1.00;;;;;;5050913;28;20461;-56
2023/04/14 11:50:54;;;;;;;5.07;4.20;;;10.30;1.00;;;;;;5043975;28;20455;-57
2023/04/14 11:53:20;;;;;;;4.23;3.90;;;10.40;1.00;;;;;;5068496;28;20434;-57
2023/04/14 11:55:47;;;;;;;4.87;4.47;;;10.60;1.00;;;;;;5043102;28;20478;-56
2023/04/14 11:58:14;;;;;;;3.80;3.50;;;10.70;1.00;;;;;;5050804;28;20503;-56
2023/04/14 12:00:41;;;;;;;3.77;3.47;;;10.80;1.00;;;;;;5045773;28;20445;-56
2023/04/14 12:03:07;;;;;;;3.83;3.43;;;10.90;1.00;;;;;;5050084;28;20439;-56
2023/04/14 12:05:34;;;;;;;3.23;2.93;;;11.00;1.00;;;;;;5044316;28;20453;-57
2023/04/14 12:08:01;;;;;;;4.80;2.90;;;11.00;1.00;;;;;;5054691;28;20291;-59
2023/04/14 12:10:27;;;;;;;3.20;2.90;;;11.20;1.00;;;;;;5043663;28;20442;-55
2023/04/14 12:13:00;;;;;;;3.30;2.90;;;11.10;1.00;;;;;;5047979;28;20439;-57
2023/04/14 12:15:26;;;;;;;3.83;3.30;;;11.00;1.00;;;;;;5045401;28;20443;-57
2023/04/14 12:17:53;;;;;;;3.93;3.53;;;11.00;1.00;;;;;;5047361;28;20969;-57
2023/04/14 12:20:19;;;;;;;3.77;3.47;;;11.00;1.00;;;;;;5054736;28;20514;-57
2023/04/14 12:22:46;;;;;;;3.77;3.23;;;11.10;1.00;;;;;;5045574;28;20827;-58
2023/04/14 12:25:12;;;;;;;4.30;3.70;;;11.10;1.00;;;;;;5046663;28;20184;-57
2023/04/14 12:27:38;;;;;;;3.70;3.40;;;11.20;1.00;;;;;;5047840;28;20480;-58
2023/04/14 12:30:08;;;;;;;3.97;3.60;;;11.30;1.00;;;;;;5047199;28;20503;-58
2023/04/14 12:32:40;;;;;;;4.13;3.83;;;11.30;1.00;;;;;;5047162;28;20187;-57
2023/04/14 12:35:06;;;;;;;3.67;3.37;;;11.40;1.00;;;;;;5048744;28;20917;-57
2023/04/14 12:37:33;;;;;;;3.70;3.40;;;11.50;1.00;;;;;;5044180;28;20447;-56
2023/04/14 12:40:00;;;;;;;4.00;3.53;;;11.70;1.00;;;;;;5043337;28;20450;-57
2023/04/14 12:42:44;;;;;;;4.23;3.50;;;11.70;1.00;;;;;;5046807;28;21082;-58
2023/04/14 12:45:10;;;;;;;4.17;3.87;;;11.60;1.00;;;;;;5050333;28;20439;-58
2023/04/14 12:47:36;;;;;;;4.10;3.80;;;11.20;1.00;;;;;;5049612;28;20496;-59
2023/04/14 12:50:32;;;;;;;7.20;6.50;;;11.20;1.00;;;;;;5044435;28;20960;-58
2023/04/14 12:53:02;;;;;;;5.27;4.77;;;11.20;1.00;;;;;;5048733;28;20439;-58
2023/04/14 12:55:29;;;;;;;4.40;4.00;;;11.30;1.00;;;;;;5046272;28;20513;-57
2023/04/14 12:57:57;;;;;;;4.50;4.10;;;11.40;1.00;;;;;;5047865;28;20451;-58
2023/04/14 13:00:27;;;;;;;4.20;3.80;;;11.40;1.00;;;;;;5046462;28;21227;-57